Time;durP1;ratioP1;P1;durP2;ratioP2;P2;SDS_P1;SDS_P2;PMS_P1;PMS_P2;Temp;Humidity;BMP_temperature;BMP_pressure;BME280_temperature;BME280_humidity;BME280_pressure;Samples;Min_cycle;Max_cycle;Signal;HPM_P1;HPM_P2
2022/05/04 00:00:43;;;;;;;6.35;1.70;;;11.30;60.10;;;;;;5086544;28;20363;-71
2022/05/04 00:03:09;;;;;;;5.38;2.10;;;11.30;60.10;;;;;;5085405;28;20510;-71
2022/05/04 00:05:35;;;;;;;3.35;1.70;;;11.20;60.00;;;;;;5087930;28;20028;-72
2022/05/04 00:08:00;;;;;;;7.45;2.08;;;11.20;60.10;;;;;;5085898;28;20032;-71
2022/05/04 00:10:26;;;;;;;3.28;1.80;;;11.20;60.10;;;;;;5088837;28;20024;-72
2022/05/04 00:12:51;;;;;;;3.88;1.70;;;11.20;60.20;;;;;;5085279;28;20032;-72
2022/05/04 00:15:17;;;;;;;6.03;1.70;;;11.20;60.10;;;;;;5084403;28;20028;-71
2022/05/04 00:17:42;;;;;;;6.28;1.90;;;11.20;60.00;;;;;;5087232;28;20392;-72
2022/05/04 00:20:09;;;;;;;4.22;1.65;;;11.20;60.00;;;;;;5083415;28;20020;-72
2022/05/04 00:22:34;;;;;;;5.10;2.08;;;11.20;60.10;;;;;;5086582;28;20077;-72
2022/05/04 00:25:00;;;;;;;5.88;2.00;;;11.20;60.20;;;;;;5087236;28;20413;-70
2022/05/04 00:27:26;;;;;;;4.85;2.00;;;11.20;60.30;;;;;;5086429;28;20020;-72
2022/05/04 00:29:51;;;;;;;5.93;1.92;;;11.20;60.30;;;;;;5088695;28;20542;-70
2022/05/04 00:32:17;;;;;;;4.03;1.90;;;11.10;60.30;;;;;;5086843;28;20032;-71
2022/05/04 00:34:43;;;;;;;3.70;1.70;;;11.10;60.30;;;;;;5092404;28;20042;-70
2022/05/04 00:37:09;;;;;;;6.20;2.03;;;11.10;60.40;;;;;;5092593;28;20055;-70
2022/05/04 00:39:35;;;;;;;3.80;1.83;;;11.10;60.40;;;;;;5091870;28;20068;-71
2022/05/04 00:42:13;;;;;;;4.43;1.88;;;11.00;60.40;;;;;;5085070;28;20099;-72
2022/05/04 00:44:40;;;;;;;7.10;2.00;;;11.10;60.30;;;;;;5089507;28;20024;-71
2022/05/04 00:47:06;;;;;;;3.88;1.80;;;11.00;60.30;;;;;;5092395;28;20148;-71
2022/05/04 00:49:32;;;;;;;4.97;1.95;;;11.00;60.50;;;;;;5091791;28;20089;-71
2022/05/04 00:51:58;;;;;;;3.75;2.03;;;11.00;60.50;;;;;;5092481;28;20028;-71
2022/05/04 00:54:24;;;;;;;4.70;1.70;;;11.00;60.50;;;;;;5092229;28;20549;-70
2022/05/04 00:56:50;;;;;;;4.25;2.00;;;11.00;60.60;;;;;;5092142;28;20478;-71
2022/05/04 00:59:16;;;;;;;6.20;2.17;;;10.90;60.60;;;;;;5088072;28;20028;-70
2022/05/04 01:01:42;;;;;;;5.47;1.70;;;10.90;60.60;;;;;;5092009;28;20031;-71
2022/05/04 01:04:08;;;;;;;4.57;1.80;;;10.90;60.70;;;;;;5091685;28;20027;-72
2022/05/04 01:06:34;;;;;;;5.20;1.90;;;10.90;60.60;;;;;;5093173;28;20031;-72
2022/05/04 01:09:00;;;;;;;5.30;1.77;;;10.90;60.50;;;;;;5091285;28;20027;-72
2022/05/04 01:11:25;;;;;;;4.63;1.83;;;11.00;60.40;;;;;;5091961;28;20035;-72
2022/05/04 01:13:59;;;;;;;5.65;2.20;;;11.00;60.40;;;;;;5089225;28;20036;-72
2022/05/04 01:16:25;;;;;;;5.55;1.90;;;10.90;60.40;;;;;;5092788;28;20081;-72
2022/05/04 01:18:51;;;;;;;4.95;1.60;;;10.90;60.40;;;;;;5090364;28;20040;-72
2022/05/04 01:21:16;;;;;;;7.32;1.80;;;10.90;60.50;;;;;;5090975;28;20065;-73
2022/05/04 01:23:42;;;;;;;6.03;2.28;;;10.90;60.50;;;;;;5089854;28;20020;-73
2022/05/04 01:26:08;;;;;;;5.65;2.10;;;10.90;60.50;;;;;;5090093;28;20016;-73
2022/05/04 01:28:33;;;;;;;5.05;1.92;;;10.80;60.50;;;;;;5091780;28;20055;-72
2022/05/04 01:30:59;;;;;;;4.47;1.65;;;10.80;60.50;;;;;;5082530;28;20082;-73
2022/05/04 01:33:24;;;;;;;5.93;2.00;;;10.80;60.40;;;;;;5086398;28;20020;-73
2022/05/04 01:35:50;;;;;;;3.58;1.70;;;10.90;60.50;;;;;;5092649;28;20042;-74
2022/05/04 01:38:15;;;;;;;3.90;1.77;;;10.80;60.40;;;;;;5089454;28;20489;-73
2022/05/04 01:40:41;;;;;;;4.18;1.83;;;10.80;60.50;;;;;;5089416;28;20030;-74
2022/05/04 01:43:06;;;;;;;5.78;1.92;;;10.70;60.50;;;;;;5089082;28;20036;-73
2022/05/04 01:45:32;;;;;;;3.92;1.67;;;10.70;60.50;;;;;;5089333;28;20399;-72
2022/05/04 01:47:57;;;;;;;5.63;2.10;;;10.80;60.60;;;;;;5089718;28;20034;-73
2022/05/04 01:50:23;;;;;;;3.17;1.45;;;10.70;60.50;;;;;;5090259;28;20020;-73
2022/05/04 01:52:49;;;;;;;5.78;2.33;;;10.70;60.50;;;;;;5087697;28;20038;-73
2022/05/04 01:55:14;;;;;;;3.67;1.90;;;10.70;60.60;;;;;;5087957;28;20032;-72
2022/05/04 01:57:40;;;;;;;4.93;1.70;;;10.70;60.70;;;;;;5089528;28;20035;-74
2022/05/04 02:00:07;;;;;;;4.85;2.00;;;10.70;60.70;;;;;;5089799;28;20543;-74
2022/05/04 02:02:33;;;;;;;5.30;2.00;;;10.60;60.80;;;;;;5087994;28;20016;-71
2022/05/04 02:04:59;;;;;;;3.95;1.83;;;10.60;60.90;;;;;;5089467;28;20089;-71
2022/05/04 02:07:24;;;;;;;4.50;1.75;;;10.60;60.90;;;;;;5088473;28;20490;-73
2022/05/04 02:09:50;;;;;;;3.85;1.98;;;10.60;60.90;;;;;;5087892;28;20107;-72
2022/05/04 02:12:16;;;;;;;5.18;2.08;;;10.50;60.90;;;;;;5088666;28;20478;-73
2022/05/04 02:14:41;;;;;;;3.45;1.60;;;10.50;61.00;;;;;;5089925;28;20027;-71
2022/05/04 02:17:07;;;;;;;3.90;2.00;;;10.50;61.00;;;;;;5090747;28;20028;-73
2022/05/04 02:19:32;;;;;;;4.78;1.95;;;10.50;61.00;;;;;;5090494;28;20036;-73
2022/05/04 02:21:58;;;;;;;5.00;1.75;;;10.50;61.10;;;;;;5085176;28;20494;-72
2022/05/04 02:24:23;;;;;;;4.20;1.73;;;10.40;61.00;;;;;;5090670;28;20026;-72
2022/05/04 02:26:49;;;;;;;4.35;1.75;;;10.40;61.10;;;;;;5089834;28;20841;-73
2022/05/04 02:29:14;;;;;;;4.25;1.67;;;10.40;61.10;;;;;;5089774;28;20028;-73
2022/05/04 02:31:40;;;;;;;6.90;1.98;;;10.40;61.10;;;;;;5089381;28;20031;-73
2022/05/04 02:34:05;;;;;;;3.95;1.60;;;10.40;61.20;;;;;;5090218;28;20494;-71
2022/05/04 02:39:15;;;;;;;5.60;1.88;;;10.40;61.10;;;;;;5088627;28;20181;-73
2022/05/04 02:41:40;;;;;;;4.13;1.85;;;10.40;61.20;;;;;;5089176;28;20509;-72
2022/05/04 02:44:07;;;;;;;6.38;2.00;;;10.40;61.20;;;;;;5090059;28;20099;-72
2022/05/04 02:46:32;;;;;;;6.32;2.15;;;10.30;61.30;;;;;;5090383;28;20028;-73
2022/05/04 02:48:58;;;;;;;5.28;1.70;;;10.30;61.40;;;;;;5088386;28;20245;-71
2022/05/04 02:51:24;;;;;;;7.13;2.22;;;10.30;61.40;;;;;;5088853;28;20039;-73
2022/05/04 02:53:49;;;;;;;3.78;1.70;;;10.30;61.40;;;;;;5090677;28;20020;-72
2022/05/04 02:56:15;;;;;;;7.93;2.05;;;10.20;61.40;;;;;;5084413;28;20107;-71
2022/05/04 02:58:42;;;;;;;5.78;2.10;;;10.20;61.40;;;;;;5089363;28;20662;-72
2022/05/04 03:04:08;;;;;;;4.82;1.90;;;10.20;61.60;;;;;;5088243;28;20084;-71
2022/05/04 03:06:35;;;;;;;5.60;1.80;;;10.10;61.60;;;;;;5090233;28;20024;-73
2022/05/04 03:09:02;;;;;;;6.22;2.08;;;10.10;61.60;;;;;;5090556;28;20510;-72
2022/05/04 03:14:12;;;;;;;5.72;1.75;;;10.00;61.80;;;;;;5088903;28;20055;-74
2022/05/04 03:16:39;;;;;;;3.60;1.75;;;10.00;61.80;;;;;;5090423;28;20478;-72
2022/05/04 03:19:05;;;;;;;7.05;2.00;;;10.10;61.80;;;;;;5089984;28;20020;-71
2022/05/04 03:21:31;;;;;;;6.25;2.00;;;10.10;61.80;;;;;;5086014;28;20528;-72
2022/05/04 03:23:56;;;;;;;4.55;1.80;;;10.10;61.80;;;;;;5089180;28;20416;-71
2022/05/04 03:26:24;;;;;;;6.22;2.25;;;10.00;61.70;;;;;;5089809;28;20024;-72
2022/05/04 03:28:50;;;;;;;6.35;2.25;;;10.00;61.70;;;;;;5088788;28;20028;-71
2022/05/04 03:31:15;;;;;;;5.75;1.70;;;10.00;61.60;;;;;;5089052;28;20512;-74
2022/05/04 03:33:41;;;;;;;3.88;1.63;;;10.00;61.60;;;;;;5088983;28;20038;-74
2022/05/04 03:36:06;;;;;;;5.00;1.80;;;10.00;61.70;;;;;;5090311;28;20058;-71
2022/05/04 03:38:33;;;;;;;4.35;1.80;;;10.00;61.70;;;;;;5087805;28;20048;-71
2022/05/04 03:40:59;;;;;;;4.40;1.70;;;10.00;61.70;;;;;;5090053;28;20475;-71
2022/05/04 03:43:24;;;;;;;4.82;1.90;;;10.00;61.70;;;;;;5089680;28;20034;-72
2022/05/04 03:45:50;;;;;;;3.78;2.00;;;9.90;61.70;;;;;;5087327;28;20035;-73
2022/05/04 03:48:15;;;;;;;2.38;1.60;;;9.90;61.70;;;;;;5086315;28;20441;-72
2022/05/04 03:50:41;;;;;;;5.07;1.80;;;9.90;61.70;;;;;;5089133;28;20024;-71
2022/05/04 03:53:06;;;;;;;4.95;2.00;;;9.90;61.70;;;;;;5088128;28;20482;-72
2022/05/04 03:55:33;;;;;;;7.20;2.28;;;9.90;61.80;;;;;;5088922;28;20024;-73
2022/05/04 03:57:59;;;;;;;3.97;1.70;;;9.80;61.80;;;;;;5086270;28;20478;-71
2022/05/04 04:00:25;;;;;;;5.90;1.80;;;9.80;61.80;;;;;;5087466;28;20047;-73
2022/05/04 04:02:50;;;;;;;4.80;2.00;;;9.80;62.50;;;;;;5085396;28;20028;-73
2022/05/04 04:05:16;;;;;;;4.70;1.98;;;9.80;61.90;;;;;;5087997;28;20020;-71
2022/05/04 04:07:41;;;;;;;4.07;1.77;;;9.80;61.90;;;;;;5089666;28;20016;-72
2022/05/04 04:10:08;;;;;;;5.45;1.90;;;9.80;62.00;;;;;;5090548;28;20078;-71
2022/05/04 04:12:33;;;;;;;3.88;1.90;;;9.70;61.90;;;;;;5089946;28;20042;-72
2022/05/04 04:14:59;;;;;;;4.95;1.85;;;9.80;61.90;;;;;;5093101;28;20028;-71
2022/05/04 04:17:24;;;;;;;6.25;2.17;;;9.80;61.90;;;;;;5093396;28;20072;-71
2022/05/04 04:21:50;;;;;;;5.22;1.88;;;9.80;61.80;;;;;;5093400;28;20032;-71
2022/05/04 04:22:35;;;;;;;5.68;2.10;;;9.70;61.90;;;;;;5091266;28;20031;-71
2022/05/04 04:25:02;;;;;;;6.60;1.98;;;9.70;62.10;;;;;;5091318;28;20016;-73
2022/05/04 04:27:29;;;;;;;4.95;1.85;;;9.70;62.10;;;;;;5090706;28;20095;-71
2022/05/04 04:29:54;;;;;;;4.53;1.80;;;9.70;62.00;;;;;;5087899;28;20288;-71
2022/05/04 04:32:20;;;;;;;4.90;2.05;;;9.70;62.00;;;;;;5088761;28;21187;-71
2022/05/04 04:34:45;;;;;;;4.43;1.90;;;9.70;61.90;;;;;;5091876;28;20028;-70
2022/05/04 04:37:12;;;;;;;4.15;1.67;;;9.70;62.00;;;;;;5088841;28;20032;-71
2022/05/04 04:39:37;;;;;;;4.63;1.85;;;9.70;62.00;;;;;;5093190;28;20638;-70
2022/05/04 04:42:03;;;;;;;4.53;2.03;;;9.70;62.10;;;;;;5094073;28;20026;-72
2022/05/04 04:44:32;;;;;;;7.97;2.20;;;9.70;62.00;;;;;;5100461;28;20024;-72
2022/05/04 04:46:57;;;;;;;6.82;2.17;;;9.70;62.00;;;;;;5097539;28;20104;-71
2022/05/04 04:49:23;;;;;;;5.10;2.08;;;9.70;61.90;;;;;;5099872;28;20550;-72
2022/05/04 04:51:51;;;;;;;6.10;1.98;;;9.70;61.90;;;;;;5095063;28;20030;-71
2022/05/04 04:54:17;;;;;;;4.00;1.98;;;9.80;61.90;;;;;;5087319;28;20020;-71
2022/05/04 04:56:42;;;;;;;7.32;2.17;;;9.80;61.90;;;;;;5094282;28;20030;-72
2022/05/04 04:59:08;;;;;;;6.00;2.53;;;9.80;61.80;;;;;;5093573;28;20028;-72
2022/05/04 05:01:34;;;;;;;4.05;1.95;;;9.80;61.70;;;;;;5094522;28;20112;-70
2022/05/04 05:03:59;;;;;;;5.68;2.35;;;9.80;61.60;;;;;;5095879;28;20030;-70
2022/05/04 05:06:25;;;;;;;5.28;2.30;;;9.80;61.70;;;;;;5098638;28;20028;-71
2022/05/04 05:08:51;;;;;;;4.25;2.20;;;9.80;61.70;;;;;;5090573;28;20032;-71
2022/05/04 05:11:17;;;;;;;5.95;2.20;;;9.90;61.70;;;;;;5091382;28;20016;-72
2022/05/04 05:16:27;;;;;;;5.18;2.05;;;9.90;61.50;;;;;;5090660;28;20039;-72
2022/05/04 05:18:52;;;;;;;4.35;1.90;;;9.90;61.40;;;;;;5098151;28;20036;-71
2022/05/04 05:21:18;;;;;;;6.45;2.20;;;10.10;61.40;;;;;;5093161;28;20027;-71
2022/05/04 05:23:44;;;;;;;4.60;1.83;;;10.60;60.90;;;;;;5093050;28;20470;-71
2022/05/04 05:26:09;;;;;;;5.30;2.10;;;11.50;59.10;;;;;;5092118;28;20030;-71
2022/05/04 05:28:35;;;;;;;6.97;2.50;;;12.30;57.20;;;;;;5093879;28;20032;-71
2022/05/04 05:31:01;;;;;;;5.38;2.10;;;12.90;55.70;;;;;;5091438;28;20401;-71
2022/05/04 05:33:26;;;;;;;6.38;1.80;;;13.40;54.60;;;;;;5094666;28;20038;-72
2022/05/04 05:35:52;;;;;;;6.63;2.40;;;13.90;53.40;;;;;;5092203;28;20035;-72
2022/05/04 05:38:17;;;;;;;4.00;2.00;;;14.20;52.30;;;;;;5097456;28;20577;-71
2022/05/04 05:40:43;;;;;;;4.93;1.88;;;14.70;51.60;;;;;;5091663;28;20024;-71
2022/05/04 05:43:08;;;;;;;5.00;1.92;;;15.20;50.70;;;;;;5083331;28;20039;-71
2022/05/04 05:45:34;;;;;;;4.80;2.10;;;15.40;49.70;;;;;;5080420;28;20047;-71
2022/05/04 05:48:00;;;;;;;5.97;2.47;;;15.40;49.40;;;;;;5090369;28;20027;-71
2022/05/04 05:50:25;;;;;;;6.20;2.10;;;15.70;48.90;;;;;;5091451;28;20107;-72
2022/05/04 05:52:51;;;;;;;3.55;1.92;;;16.10;48.20;;;;;;5090998;28;20371;-72
2022/05/04 05:55:16;;;;;;;4.63;2.17;;;16.60;47.60;;;;;;5089945;28;20077;-72
2022/05/04 05:57:42;;;;;;;3.85;2.00;;;16.90;46.70;;;;;;5089546;28;20501;-71
2022/05/04 06:00:08;;;;;;;3.20;1.70;;;17.20;46.00;;;;;;5086817;28;20024;-71
2022/05/04 06:02:34;;;;;;;4.60;2.10;;;17.50;45.40;;;;;;5090881;28;20048;-71
2022/05/04 06:05:00;;;;;;;5.05;2.10;;;17.40;44.60;;;;;;5089250;28;20058;-72
2022/05/04 06:07:25;;;;;;;5.28;2.13;;;17.00;44.90;;;;;;5083711;28;20054;-72
2022/05/04 06:09:52;;;;;;;3.35;1.75;;;17.10;45.10;;;;;;5087815;28;20161;-72
2022/05/04 06:12:17;;;;;;;5.72;2.30;;;17.40;44.30;;;;;;5088740;28;20073;-73
2022/05/04 06:14:43;;;;;;;5.78;2.28;;;17.40;43.90;;;;;;5087404;28;20024;-72
2022/05/04 06:17:09;;;;;;;6.38;2.40;;;17.70;43.50;;;;;;5089175;28;20036;-72
2022/05/04 06:19:34;;;;;;;6.88;2.15;;;17.40;43.20;;;;;;5088114;28;20032;-72
2022/05/04 06:22:00;;;;;;;4.75;1.90;;;17.30;43.40;;;;;;5089328;28;20035;-72
2022/05/04 06:24:27;;;;;;;5.32;1.90;;;17.10;43.90;;;;;;5085915;28;20075;-72
2022/05/04 06:26:53;;;;;;;4.40;1.70;;;16.90;44.20;;;;;;5087618;28;20490;-72
2022/05/04 06:29:18;;;;;;;3.55;1.45;;;17.40;43.70;;;;;;5086415;28;20035;-72
2022/05/04 06:34:28;;;;;;;3.90;1.48;;;17.90;43.20;;;;;;5087426;28;20059;-73
2022/05/04 06:36:54;;;;;;;4.03;1.50;;;18.60;42.00;;;;;;5088201;28;20056;-73
2022/05/04 06:39:19;;;;;;;4.82;2.22;;;19.10;41.20;;;;;;5091052;28;20039;-71
2022/05/04 06:41:45;;;;;;;6.35;2.10;;;19.20;39.70;;;;;;5098493;28;20036;-72
2022/05/04 06:44:10;;;;;;;4.35;1.60;;;18.70;40.20;;;;;;5084492;28;20024;-73
2022/05/04 06:46:41;;;;;;;6.80;2.00;;;18.80;40.30;;;;;;5088741;28;20024;-73
2022/05/04 06:49:09;;;;;;;5.72;2.17;;;18.40;40.80;;;;;;5090640;28;20277;-71
2022/05/04 06:51:35;;;;;;;3.90;1.90;;;18.60;41.40;;;;;;5093123;28;20099;-72
2022/05/04 06:54:00;;;;;;;4.90;2.08;;;18.60;41.00;;;;;;5090042;28;20175;-72
2022/05/04 06:56:26;;;;;;;3.95;1.63;;;19.00;41.00;;;;;;5086735;28;20059;-72
2022/05/04 06:58:51;;;;;;;5.93;2.17;;;19.30;40.50;;;;;;5088574;28;20039;-72
2022/05/04 07:01:17;;;;;;;5.25;1.80;;;19.00;39.40;;;;;;5096620;28;20326;-72
2022/05/04 07:03:42;;;;;;;3.38;1.52;;;19.20;40.30;;;;;;5094128;28;20023;-72
2022/05/04 07:06:08;;;;;;;3.40;1.52;;;19.80;39.70;;;;;;5088748;28;20515;-72
2022/05/04 07:08:34;;;;;;;3.70;1.75;;;20.30;38.80;;;;;;5080019;28;20029;-72
2022/05/04 07:11:00;;;;;;;4.10;1.60;;;20.60;38.30;;;;;;5086160;28;20020;-73
2022/05/04 07:13:25;;;;;;;3.28;1.48;;;21.10;37.60;;;;;;5085131;28;20028;-71
2022/05/04 07:15:51;;;;;;;4.28;1.50;;;21.50;37.10;;;;;;5084424;28;20135;-73
2022/05/04 07:18:16;;;;;;;4.10;1.50;;;21.60;37.00;;;;;;5085483;28;20027;-73
2022/05/04 07:20:42;;;;;;;4.63;1.80;;;22.00;36.70;;;;;;5084240;28;20026;-72
2022/05/04 07:23:08;;;;;;;4.03;1.70;;;22.00;36.10;;;;;;5085409;28;20032;-72
2022/05/04 07:25:33;;;;;;;5.38;1.83;;;22.10;36.10;;;;;;5087541;28;20016;-74
2022/05/04 07:27:59;;;;;;;4.53;1.95;;;21.60;36.00;;;;;;5085393;28;20024;-71
2022/05/04 07:30:24;;;;;;;4.10;1.80;;;21.90;36.40;;;;;;5092212;28;20062;-71
2022/05/04 07:32:50;;;;;;;3.80;1.90;;;21.60;36.70;;;;;;5097068;28;20099;-71
2022/05/04 07:35:17;;;;;;;5.55;1.95;;;21.40;37.20;;;;;;5089760;28;20031;-72
2022/05/04 07:37:43;;;;;;;5.22;2.20;;;20.70;37.20;;;;;;5096779;28;20023;-71
2022/05/04 07:42:54;;;;;;;3.78;1.88;;;18.90;40.20;;;;;;5095129;28;20062;-74
2022/05/04 07:45:25;;;;;;;3.15;1.77;;;18.70;41.00;;;;;;5088822;28;20052;-72
2022/05/04 07:47:50;;;;;;;5.63;1.83;;;18.70;41.40;;;;;;5091429;28;20055;-72
2022/05/04 07:50:17;;;;;;;4.55;1.80;;;18.60;41.70;;;;;;5086322;28;20055;-72
2022/05/04 07:52:43;;;;;;;3.25;1.70;;;18.30;42.00;;;;;;5088676;28;20106;-72
2022/05/04 07:55:10;;;;;;;3.58;2.00;;;18.10;42.40;;;;;;5088863;28;20106;-71
2022/05/04 07:57:36;;;;;;;2.83;1.70;;;17.70;42.90;;;;;;5092164;28;20053;-72
2022/05/04 08:05:33;;;;;;;6.40;2.30;;;17.00;43.60;;;;;;5084167;28;20115;-71
2022/05/04 08:07:59;;;;;;;3.80;2.10;;;16.80;44.10;;;;;;5090291;28;20110;-70
2022/05/04 08:10:25;;;;;;;4.60;1.90;;;16.50;44.10;;;;;;5082609;28;20494;-72
2022/05/04 08:12:52;;;;;;;4.28;2.20;;;16.10;44.70;;;;;;5085471;28;20024;-71
2022/05/04 08:15:18;;;;;;;3.92;2.33;;;16.00;45.30;;;;;;5085689;28;20733;-71
2022/05/04 08:17:43;;;;;;;4.00;1.85;;;16.20;45.50;;;;;;5082103;28;20028;-70
2022/05/04 08:20:10;;;;;;;5.30;1.98;;;16.30;45.60;;;;;;5084318;28;20036;-70
2022/05/04 08:22:35;;;;;;;3.85;2.00;;;16.50;45.50;;;;;;5088173;28;20089;-70
2022/05/04 08:25:01;;;;;;;4.80;1.77;;;16.80;45.30;;;;;;5086041;28;20478;-71
2022/05/04 08:27:26;;;;;;;5.65;2.15;;;17.00;44.90;;;;;;5085004;28;20055;-71
2022/05/04 08:29:52;;;;;;;4.20;1.98;;;17.20;44.50;;;;;;5081860;28;20035;-70
2022/05/04 08:32:18;;;;;;;3.30;1.60;;;17.10;44.10;;;;;;5085567;28;20057;-70
2022/05/04 08:34:43;;;;;;;5.82;1.90;;;17.10;44.30;;;;;;5089960;28;20016;-70
2022/05/04 08:37:09;;;;;;;3.63;2.10;;;17.20;43.90;;;;;;5092845;28;20043;-70
2022/05/04 08:39:34;;;;;;;5.72;2.30;;;17.00;43.90;;;;;;5080790;28;20036;-70
2022/05/04 08:42:02;;;;;;;5.05;2.05;;;16.90;43.40;;;;;;5085324;28;20036;-70
2022/05/04 08:44:27;;;;;;;4.38;1.90;;;16.70;43.70;;;;;;5092836;28;20493;-70
2022/05/04 08:46:55;;;;;;;2.88;1.73;;;16.70;44.10;;;;;;5088912;28;20023;-70
2022/05/04 08:49:22;;;;;;;4.18;2.17;;;16.80;43.90;;;;;;5087726;28;20028;-70
2022/05/04 08:51:49;;;;;;;3.83;1.70;;;16.90;43.90;;;;;;5092514;28;20028;-70
2022/05/04 08:54:17;;;;;;;3.53;2.05;;;17.00;43.60;;;;;;5095663;28;20027;-69
2022/05/04 08:56:43;;;;;;;5.00;2.10;;;16.90;43.70;;;;;;5092367;28;20016;-70
2022/05/04 08:59:09;;;;;;;8.25;2.20;;;16.80;43.60;;;;;;5098176;28;20024;-70
2022/05/04 09:01:39;;;;;;;6.05;1.98;;;16.70;43.70;;;;;;5088900;28;20028;-70
2022/05/04 09:04:05;;;;;;;4.32;2.00;;;16.50;43.60;;;;;;5088955;28;20386;-72
2022/05/04 09:06:33;;;;;;;4.55;1.67;;;16.50;44.80;;;;;;5089221;28;20024;-72
2022/05/04 09:09:13;;;;;;;3.80;1.60;;;16.50;44.30;;;;;;5089107;28;20536;-71
2022/05/04 09:11:41;;;;;;;3.28;1.70;;;16.70;44.20;;;;;;5089922;28;20048;-72
2022/05/04 09:14:20;;;;;;;1.85;1.48;;;16.90;43.80;;;;;;5086519;28;20024;-70
2022/05/04 09:16:46;;;;;;;3.53;1.60;;;17.10;43.50;;;;;;5080961;28;20024;-70
2022/05/04 09:19:14;;;;;;;4.60;1.90;;;17.20;43.30;;;;;;5086520;28;20024;-69
2022/05/04 09:21:41;;;;;;;5.03;2.00;;;17.00;42.70;;;;;;5086467;28;20038;-71
2022/05/04 09:24:07;;;;;;;2.38;1.60;;;16.90;43.10;;;;;;5086672;28;20038;-70
2022/05/04 09:26:39;;;;;;;5.30;1.95;;;17.00;43.40;;;;;;5087700;28;20016;-69
2022/05/04 09:29:06;;;;;;;2.75;1.60;;;17.20;43.30;;;;;;5084713;28;20028;-69
2022/05/04 09:31:32;;;;;;;3.95;1.83;;;17.30;43.20;;;;;;5088706;28;20024;-69
2022/05/04 09:34:00;;;;;;;4.28;1.95;;;17.30;42.90;;;;;;5084969;28;20047;-69
2022/05/04 09:45:09;;;;;;;3.10;2.00;;;17.40;42.70;;;;;;5086347;28;20149;-71
2022/05/04 09:47:39;;;;;;;3.42;1.95;;;17.40;42.60;;;;;;5097157;28;20036;-70
2022/05/04 09:50:05;;;;;;;4.03;1.92;;;17.40;42.70;;;;;;5088590;28;20028;-71
2022/05/04 09:52:41;;;;;;;5.88;2.22;;;17.30;42.70;;;;;;5085001;28;20028;-70
2022/05/04 09:55:17;;;;;;;3.53;2.10;;;17.40;42.90;;;;;;5088699;28;20028;-70
2022/05/04 09:57:44;;;;;;;3.03;2.05;;;17.50;42.80;;;;;;5087489;28;20027;-69
2022/05/04 10:00:12;;;;;;;5.32;2.33;;;17.50;42.50;;;;;;5085649;28;20029;-70
2022/05/04 10:02:39;;;;;;;4.22;2.20;;;17.40;42.30;;;;;;5080141;28;20119;-70
2022/05/04 10:05:05;;;;;;;4.90;2.40;;;17.60;42.60;;;;;;5091404;28;20144;-70
2022/05/04 10:07:31;;;;;;;7.75;2.50;;;17.70;42.30;;;;;;5095661;28;20024;-69
2022/05/04 10:09:57;;;;;;;4.15;2.50;;;17.70;41.90;;;;;;5089357;28;20024;-70
2022/05/04 10:12:26;;;;;;;3.95;2.30;;;17.60;41.70;;;;;;5088624;28;20024;-70
2022/05/04 10:14:53;;;;;;;4.57;2.30;;;17.80;42.00;;;;;;5089276;28;20085;-70
2022/05/04 10:17:24;;;;;;;4.05;2.10;;;17.90;41.70;;;;;;5084090;28;20044;-71
2022/05/04 10:20:03;;;;;;;3.75;2.15;;;18.00;41.60;;;;;;5084901;28;20028;-70
2022/05/04 10:22:36;;;;;;;4.07;2.05;;;18.10;41.40;;;;;;5085681;28;20176;-70
2022/05/04 10:25:04;;;;;;;3.38;1.98;;;18.10;41.10;;;;;;5085552;28;20066;-70
2022/05/04 10:27:29;;;;;;;2.78;1.70;;;18.30;41.30;;;;;;5084824;28;20012;-70
2022/05/04 10:32:45;;;;;;;4.07;2.13;;;18.40;40.60;;;;;;5088462;28;20711;-70
2022/05/04 10:35:17;;;;;;;4.97;2.60;;;18.20;40.70;;;;;;5082115;28;20433;-71
2022/05/04 10:37:58;;;;;;;4.57;2.20;;;18.00;40.10;;;;;;5090635;28;20066;-71
2022/05/04 10:40:30;;;;;;;4.25;2.10;;;17.90;40.60;;;;;;5084337;28;20391;-70
2022/05/04 10:43:18;;;;;;;4.22;2.35;;;17.90;40.60;;;;;;5101515;28;20065;-70
2022/05/04 10:45:46;;;;;;;3.75;2.20;;;17.80;40.80;;;;;;5083408;28;20123;-70
2022/05/04 10:48:20;;;;;;;3.22;2.10;;;17.90;40.30;;;;;;5086856;28;20029;-70
2022/05/04 10:51:19;;;;;;;2.78;1.70;;;18.00;40.30;;;;;;5081262;28;20024;-70
2022/05/04 10:54:04;;;;;;;4.55;2.15;;;18.20;40.20;;;;;;5083005;28;20050;-70
2022/05/04 10:56:47;;;;;;;2.83;1.90;;;18.30;39.80;;;;;;5087768;28;20413;-70
2022/05/04 10:59:24;;;;;;;3.83;2.17;;;18.30;39.70;;;;;;5095217;28;20028;-70
2022/05/04 11:01:54;;;;;;;3.47;1.98;;;18.40;39.80;;;;;;5093134;28;20107;-70
2022/05/04 11:04:24;;;;;;;4.00;1.80;;;18.50;39.70;;;;;;5100532;28;20032;-70
2022/05/04 11:06:53;;;;;;;4.25;2.10;;;18.70;39.50;;;;;;5088872;28;20096;-70
2022/05/04 11:09:21;;;;;;;3.83;2.20;;;18.70;39.20;;;;;;5088251;28;20031;-70
2022/05/04 11:11:49;;;;;;;3.33;2.00;;;18.70;38.90;;;;;;5089673;28;20104;-70
2022/05/04 11:14:16;;;;;;;6.00;2.70;;;18.50;38.90;;;;;;5089299;28;20948;-70
2022/05/04 11:16:43;;;;;;;6.03;2.17;;;18.50;39.40;;;;;;5080666;28;20028;-70
2022/05/04 11:19:12;;;;;;;3.63;2.10;;;18.60;39.50;;;;;;5085500;28;20081;-70
2022/05/04 11:21:38;;;;;;;4.85;2.25;;;18.90;39.40;;;;;;5085810;28;20024;-70
2022/05/04 11:24:06;;;;;;;4.80;2.20;;;19.00;39.20;;;;;;5086575;28;20020;-70
2022/05/04 11:26:42;;;;;;;4.18;2.28;;;19.20;39.00;;;;;;5085855;28;20074;-70
2022/05/04 11:29:19;;;;;;;4.75;2.40;;;19.40;38.80;;;;;;5088463;28;20024;-70
2022/05/04 11:31:47;;;;;;;5.00;2.35;;;19.40;38.40;;;;;;5083323;28;20117;-70
2022/05/04 11:34:17;;;;;;;4.05;2.22;;;19.40;38.30;;;;;;5084140;28;20047;-70
2022/05/04 11:36:48;;;;;;;3.60;2.25;;;19.50;38.30;;;;;;5085042;28;20031;-70
2022/05/04 11:39:21;;;;;;;4.47;2.80;;;19.70;38.20;;;;;;5087084;28;20073;-70
2022/05/04 11:41:52;;;;;;;3.70;2.40;;;19.60;37.60;;;;;;5085814;28;20028;-69
2022/05/04 11:44:21;;;;;;;7.53;2.72;;;19.50;38.00;;;;;;5085464;28;20020;-70
2022/05/04 11:46:48;;;;;;;5.03;2.10;;;19.60;38.10;;;;;;5085064;28;20036;-69
2022/05/04 11:49:14;;;;;;;4.43;2.50;;;19.70;38.10;;;;;;5085164;28;20032;-70
2022/05/04 11:51:42;;;;;;;5.25;2.45;;;19.80;37.90;;;;;;5085761;28;20055;-70
2022/05/04 11:54:08;;;;;;;6.05;3.00;;;20.00;38.40;;;;;;5085198;28;20039;-70
2022/05/04 11:56:35;;;;;;;5.93;2.67;;;20.10;37.90;;;;;;5086105;28;20847;-70
2022/05/04 11:59:01;;;;;;;3.88;2.55;;;20.20;37.80;;;;;;5085476;28;20028;-69
2022/05/04 12:01:27;;;;;;;4.43;2.60;;;20.20;37.70;;;;;;5086442;28;20024;-70
2022/05/04 12:03:53;;;;;;;3.17;2.28;;;20.40;37.50;;;;;;5086434;28;20050;-70
2022/05/04 12:06:19;;;;;;;5.13;2.50;;;20.60;37.60;;;;;;5086106;28;20027;-70
2022/05/04 12:08:45;;;;;;;4.68;2.83;;;20.60;37.30;;;;;;5085776;28;20050;-70
2022/05/04 12:11:11;;;;;;;5.20;2.40;;;20.70;37.00;;;;;;5085106;28;20065;-70
2022/05/04 12:13:41;;;;;;;6.85;2.80;;;20.70;37.20;;;;;;5086755;28;20032;-69
2022/05/04 12:16:09;;;;;;;4.20;2.53;;;20.80;36.70;;;;;;5081079;28;20073;-70
2022/05/04 12:18:36;;;;;;;4.03;2.78;;;20.80;37.00;;;;;;5085578;28;20785;-70
2022/05/04 12:21:13;;;;;;;5.20;3.08;;;20.90;36.80;;;;;;5081711;28;21041;-69
2022/05/04 12:23:41;;;;;;;4.00;2.67;;;21.00;36.40;;;;;;5085511;28;20444;-70
2022/05/04 12:26:08;;;;;;;5.82;2.72;;;21.10;36.20;;;;;;5086287;28;20023;-69
2022/05/04 12:28:35;;;;;;;5.10;2.35;;;21.20;36.20;;;;;;5085662;28;20032;-70
2022/05/04 12:33:50;;;;;;;4.93;2.63;;;21.50;35.80;;;;;;5091517;28;20402;-70
2022/05/04 12:36:18;;;;;;;5.07;2.90;;;21.70;35.50;;;;;;5087480;28;20017;-69
2022/05/04 12:38:48;;;;;;;5.25;2.90;;;21.70;35.30;;;;;;5089746;28;20032;-69
2022/05/04 12:41:18;;;;;;;4.25;2.60;;;21.70;35.20;;;;;;5085351;28;20094;-70
2022/05/04 12:43:44;;;;;;;5.65;3.50;;;21.60;35.30;;;;;;5088069;28;20055;-70
2022/05/04 12:46:17;;;;;;;6.68;2.78;;;21.50;35.10;;;;;;5087459;28;20028;-69
2022/05/04 12:48:45;;;;;;;5.70;2.75;;;21.50;34.80;;;;;;5092197;28;20016;-70
2022/05/04 12:51:13;;;;;;;5.22;2.50;;;21.20;34.90;;;;;;5088272;28;20073;-69
2022/05/04 12:53:39;;;;;;;4.93;2.47;;;21.40;35.20;;;;;;5087833;28;20493;-70
2022/05/04 12:58:50;;;;;;;3.95;1.90;;;21.50;34.40;;;;;;5090119;28;20401;-70
2022/05/04 13:01:15;;;;;;;3.35;2.20;;;21.70;34.30;;;;;;5087731;28;20028;-69
2022/05/04 13:03:41;;;;;;;6.15;2.40;;;21.70;33.80;;;;;;5090352;28;20023;-69
2022/05/04 13:06:07;;;;;;;5.70;2.00;;;21.70;33.90;;;;;;5088288;28;20491;-69
2022/05/04 13:08:32;;;;;;;4.45;2.30;;;21.80;33.70;;;;;;5091857;28;20034;-70
2022/05/04 13:10:58;;;;;;;3.88;2.33;;;21.80;33.40;;;;;;5089784;28;20036;-70
2022/05/04 13:13:25;;;;;;;4.50;2.63;;;21.60;33.10;;;;;;5086902;28;20031;-70
2022/05/04 13:15:51;;;;;;;6.22;2.50;;;21.80;33.30;;;;;;5088180;28;20023;-70
2022/05/04 13:18:18;;;;;;;3.78;2.10;;;21.70;33.30;;;;;;5088933;28;20024;-71
2022/05/04 13:20:43;;;;;;;4.22;2.00;;;21.90;33.50;;;;;;5090636;28;20111;-70
2022/05/04 13:23:09;;;;;;;4.75;1.80;;;22.10;33.60;;;;;;5087171;28;20869;-70
2022/05/04 13:25:35;;;;;;;4.57;2.10;;;22.20;33.40;;;;;;5087181;28;20048;-71